createdAt,value
2023-05-21T00:00:35.519Z,0.00
2023-05-21T00:01:35.807Z,0.00
2023-05-21T00:02:35.601Z,0.00
2023-05-21T00:03:35.571Z,0.00
2023-05-21T00:04:35.458Z,0.00
2023-05-21T00:05:35.748Z,0.00
2023-05-21T00:06:35.542Z,0.00
2023-05-21T00:07:35.429Z,0.00
2023-05-21T00:08:35.497Z,0.00
2023-05-21T00:09:35.439Z,0.00
2023-05-21T00:10:35.409Z,0.00
2023-05-21T00:11:35.390Z,0.00
2023-05-21T00:12:35.395Z,0.00
2023-05-21T00:13:35.366Z,0.00
2023-05-21T00:14:35.407Z,0.00
2023-05-21T00:15:35.535Z,0.00
2023-05-21T00:16:40.077Z,0.00
2023-05-21T00:17:35.386Z,0.00
2023-05-21T00:18:35.321Z,0.00
2023-05-21T00:19:35.308Z,0.00
2023-05-21T00:20:35.308Z,0.00
2023-05-21T00:21:35.283Z,0.00
2023-05-21T00:22:35.560Z,0.00
2023-05-21T00:23:35.312Z,0.00
2023-05-21T00:24:35.276Z,0.00
2023-05-21T00:25:35.465Z,0.00
2023-05-21T00:26:35.254Z,0.00
2023-05-21T00:27:35.219Z,0.00
2023-05-21T00:28:35.262Z,0.00
2023-05-21T00:29:35.262Z,0.00
2023-05-21T00:30:35.177Z,0.00
2023-05-21T00:31:35.237Z,0.00
2023-05-21T00:32:35.290Z,0.00
2023-05-21T00:33:35.189Z,0.00
2023-05-21T00:34:35.176Z,0.00
2023-05-21T00:35:35.415Z,0.00
2023-05-21T00:36:35.169Z,0.00
2023-05-21T00:37:35.121Z,0.00
2023-05-21T00:38:35.103Z,0.00
2023-05-21T00:39:35.105Z,0.00
2023-05-21T00:40:35.128Z,0.00
2023-05-21T00:41:35.984Z,0.00
2023-05-21T00:42:35.054Z,0.00
2023-05-21T00:43:35.062Z,0.00
2023-05-21T00:44:35.104Z,0.00
2023-05-21T00:45:35.318Z,0.00
2023-05-21T00:46:40.041Z,0.00
2023-05-21T00:47:35.117Z,0.00
2023-05-21T00:48:34.999Z,0.00
2023-05-21T00:49:34.994Z,0.00
2023-05-21T00:50:35.049Z,0.00
2023-05-21T00:51:35.062Z,0.00
2023-05-21T00:52:34.970Z,0.00
2023-05-21T00:53:35.006Z,0.00
2023-05-21T00:54:34.974Z,0.00
2023-05-21T00:55:35.111Z,0.00
2023-05-21T00:56:34.990Z,0.00
2023-05-21T00:57:34.894Z,0.00
2023-05-21T00:58:34.937Z,0.00
2023-05-21T00:59:34.870Z,0.00
2023-05-21T01:00:34.885Z,0.00
2023-05-21T01:01:34.930Z,0.00
2023-05-21T01:02:34.945Z,0.00
2023-05-21T01:03:34.882Z,0.00
2023-05-21T01:04:34.843Z,0.00
2023-05-21T01:05:34.974Z,0.00
2023-05-21T01:06:34.967Z,0.00
2023-05-21T01:07:34.796Z,0.00
2023-05-21T01:08:34.892Z,0.00
2023-05-21T01:09:34.791Z,0.00
2023-05-21T01:10:34.805Z,0.00
2023-05-21T01:11:34.791Z,0.00
2023-05-21T01:12:34.797Z,0.00
2023-05-21T01:13:34.740Z,0.00
2023-05-21T01:14:34.743Z,0.00
2023-05-21T01:15:34.973Z,0.00
2023-05-21T01:16:34.728Z,0.00
2023-05-21T01:17:34.764Z,0.00
2023-05-21T01:18:34.720Z,0.00
2023-05-21T01:19:34.689Z,0.00
2023-05-21T01:20:35.034Z,0.00
2023-05-21T01:21:34.672Z,0.00
2023-05-21T01:22:34.710Z,0.00
2023-05-21T01:23:35.501Z,0.00
2023-05-21T01:24:34.603Z,0.00
2023-05-21T01:25:34.862Z,0.00
2023-05-21T01:26:34.618Z,0.00
2023-05-21T01:27:34.616Z,0.00
2023-05-21T01:28:34.599Z,0.00
2023-05-21T01:29:34.686Z,0.00
2023-05-21T01:30:34.595Z,0.00
2023-05-21T01:31:34.539Z,0.00
2023-05-21T01:32:34.554Z,0.00
2023-05-21T01:33:34.613Z,0.00
2023-05-21T01:34:34.492Z,0.00
2023-05-21T01:35:34.680Z,0.00
2023-05-21T01:36:34.519Z,0.00
2023-05-21T01:37:34.578Z,0.00
2023-05-21T01:38:34.458Z,0.00
2023-05-21T01:39:34.467Z,0.00
2023-05-21T01:40:34.456Z,0.00
2023-05-21T01:41:35.049Z,0.00
2023-05-21T01:42:34.456Z,0.00
2023-05-21T01:43:34.441Z,0.00
2023-05-21T01:44:34.449Z,0.00
2023-05-21T01:45:34.674Z,0.00
2023-05-21T01:46:34.412Z,0.00
2023-05-21T01:47:34.425Z,0.00
2023-05-21T01:48:34.366Z,0.00
2023-05-21T01:49:34.381Z,0.00
2023-05-21T01:50:34.381Z,0.00
2023-05-21T01:51:34.467Z,0.00
2023-05-21T01:52:34.406Z,0.00
2023-05-21T01:53:34.312Z,0.00
2023-05-21T01:54:34.304Z,0.00
2023-05-21T01:55:34.665Z,0.00
2023-05-21T01:56:34.281Z,0.00
2023-05-21T01:57:34.334Z,0.00
2023-05-21T01:58:34.258Z,0.00
2023-05-21T01:59:34.260Z,0.00
2023-05-21T02:00:34.304Z,0.00
2023-05-21T02:01:34.295Z,0.00
2023-05-21T02:02:34.332Z,0.00
2023-05-21T02:03:34.307Z,0.00
2023-05-21T02:04:34.215Z,0.00
2023-05-21T02:05:34.311Z,0.00
2023-05-21T02:06:34.187Z,0.00
2023-05-21T02:07:34.188Z,0.00
2023-05-21T02:08:34.216Z,0.00
2023-05-21T02:09:34.137Z,0.00
2023-05-21T02:10:34.181Z,0.00
2023-05-21T02:11:34.143Z,0.00
2023-05-21T02:12:34.100Z,0.00
2023-05-21T02:13:34.128Z,0.00
2023-05-21T02:14:34.104Z,0.00
2023-05-21T02:15:34.344Z,0.00
2023-05-21T02:16:34.173Z,0.00
2023-05-21T02:17:34.211Z,0.00
2023-05-21T02:18:34.141Z,0.00
2023-05-21T02:19:34.238Z,0.00
2023-05-21T02:20:34.029Z,0.00
2023-05-21T02:21:34.037Z,0.00
2023-05-21T02:22:34.046Z,0.00
2023-05-21T02:23:34.076Z,0.00
2023-05-21T02:24:34.028Z,0.00
2023-05-21T02:25:34.180Z,0.00
2023-05-21T02:26:33.953Z,0.00
2023-05-21T02:27:33.957Z,0.00
2023-05-21T02:28:33.996Z,0.00
2023-05-21T02:29:33.938Z,0.00
2023-05-21T02:30:33.993Z,0.00
2023-05-21T02:31:33.915Z,0.00
2023-05-21T02:32:33.993Z,0.00
2023-05-21T02:33:33.933Z,0.00
2023-05-21T02:34:33.888Z,0.00
2023-05-21T02:35:34.113Z,0.00
2023-05-21T02:36:33.901Z,0.00
2023-05-21T02:37:33.900Z,0.00
2023-05-21T02:38:33.838Z,0.00
2023-05-21T02:39:33.831Z,0.00
2023-05-21T02:40:33.882Z,0.00
2023-05-21T02:41:33.863Z,0.00
2023-05-21T02:42:33.827Z,0.00
2023-05-21T02:43:33.787Z,0.00
2023-05-21T02:44:33.768Z,0.00
2023-05-21T02:45:33.837Z,0.00
2023-05-21T02:46:33.772Z,0.00
2023-05-21T02:47:33.788Z,0.00
2023-05-21T02:48:33.744Z,0.00
2023-05-21T02:49:33.830Z,0.00
2023-05-21T02:50:33.759Z,0.00
2023-05-21T02:51:33.731Z,0.00
2023-05-21T02:52:33.730Z,0.00
2023-05-21T02:53:33.713Z,0.00
2023-05-21T02:54:33.700Z,0.00
2023-05-21T02:55:34.195Z,0.00
2023-05-21T02:56:33.676Z,0.00
2023-05-21T02:57:33.649Z,0.00
2023-05-21T02:58:33.666Z,0.00
2023-05-21T02:59:33.611Z,0.00
2023-05-21T03:00:33.654Z,0.00
2023-05-21T03:01:33.640Z,0.00
2023-05-21T03:02:33.666Z,0.00
2023-05-21T03:03:33.754Z,0.00
2023-05-21T03:04:33.564Z,0.00
2023-05-21T03:05:34.720Z,0.00
2023-05-21T03:06:33.575Z,0.00
2023-05-21T03:07:33.526Z,0.00
2023-05-21T03:08:33.532Z,0.00
2023-05-21T03:09:33.502Z,0.00
2023-05-21T03:10:33.527Z,0.00
2023-05-21T03:11:33.481Z,0.00
2023-05-21T03:12:33.562Z,0.00
2023-05-21T03:13:33.487Z,0.00
2023-05-21T03:14:33.504Z,0.00
2023-05-21T03:15:33.470Z,0.00
2023-05-21T03:16:33.590Z,0.00
2023-05-21T03:17:33.477Z,0.00
2023-05-21T03:18:33.426Z,0.00
2023-05-21T03:19:33.432Z,0.00
2023-05-21T03:20:33.496Z,0.00
2023-05-21T03:21:33.370Z,0.00
2023-05-21T03:22:33.435Z,0.00
2023-05-21T03:23:33.350Z,0.00
2023-05-21T03:24:33.364Z,0.00
2023-05-21T03:25:33.514Z,0.00
2023-05-21T03:26:33.361Z,0.00
2023-05-21T03:27:33.324Z,0.00
2023-05-21T03:28:33.371Z,0.00
2023-05-21T03:29:33.303Z,0.00
2023-05-21T03:30:33.278Z,0.00
2023-05-21T03:31:33.363Z,0.00
2023-05-21T03:32:33.391Z,0.00
2023-05-21T03:33:33.263Z,0.00
2023-05-21T03:34:33.301Z,0.00
2023-05-21T03:35:33.393Z,0.00
2023-05-21T03:36:33.340Z,0.00
2023-05-21T03:37:33.230Z,0.00
2023-05-21T03:38:34.880Z,0.00
2023-05-21T03:39:33.181Z,0.00
2023-05-21T03:40:33.198Z,0.00
2023-05-21T03:41:33.567Z,0.00
2023-05-21T03:42:33.151Z,0.00
2023-05-21T03:43:33.211Z,0.00
2023-05-21T03:44:33.154Z,0.00
2023-05-21T03:45:33.175Z,0.00
2023-05-21T03:46:33.194Z,0.00
2023-05-21T03:47:33.186Z,0.00
2023-05-21T03:48:33.119Z,0.00
2023-05-21T03:49:33.107Z,0.00
2023-05-21T03:50:34.037Z,0.00
2023-05-21T03:51:33.096Z,0.00
2023-05-21T03:52:33.162Z,0.00
2023-05-21T03:53:33.092Z,0.00
2023-05-21T03:54:33.047Z,0.00
2023-05-21T03:55:33.024Z,0.00
2023-05-21T03:56:32.998Z,0.00
2023-05-21T03:57:32.990Z,0.00
2023-05-21T03:58:32.980Z,0.00
2023-05-21T03:59:33.026Z,0.00
2023-05-21T04:00:32.948Z,0.00
2023-05-21T04:01:32.965Z,0.00
2023-05-21T04:02:33.022Z,0.00
2023-05-21T04:03:33.189Z,0.00
2023-05-21T04:04:32.949Z,0.00
2023-05-21T04:05:32.946Z,0.00
2023-05-21T04:06:32.891Z,0.00
2023-05-21T04:07:32.908Z,0.00
2023-05-21T04:08:32.925Z,0.00
2023-05-21T04:09:33.910Z,0.00
2023-05-21T04:10:32.854Z,0.00
2023-05-21T04:11:32.920Z,0.00
2023-05-21T04:12:32.843Z,0.00
2023-05-21T04:13:32.832Z,0.00
2023-05-21T04:14:32.834Z,0.00
2023-05-21T04:15:32.797Z,0.00
2023-05-21T04:16:32.958Z,0.00
2023-05-21T04:17:32.899Z,0.00
2023-05-21T04:18:32.778Z,0.00
2023-05-21T04:19:32.840Z,0.00
2023-05-21T04:20:32.801Z,0.00
2023-05-21T04:21:32.788Z,0.00
2023-05-21T04:22:32.717Z,0.00
2023-05-21T04:23:32.710Z,0.00
2023-05-21T04:24:32.768Z,0.00
2023-05-21T04:25:32.729Z,0.00
2023-05-21T04:26:40.302Z,0.00
2023-05-21T04:27:32.679Z,0.00
2023-05-21T04:28:32.679Z,0.00
2023-05-21T04:29:32.693Z,0.00
2023-05-21T04:30:32.722Z,0.00
2023-05-21T04:31:32.691Z,0.00
2023-05-21T04:32:32.723Z,0.00
2023-05-21T04:33:32.606Z,0.00
2023-05-21T04:34:32.612Z,0.00
2023-05-21T04:35:32.583Z,0.00
2023-05-21T04:36:32.598Z,0.00
2023-05-21T04:37:32.632Z,0.00
2023-05-21T04:38:32.544Z,0.00
2023-05-21T04:39:32.543Z,0.00
2023-05-21T04:40:32.552Z,0.00
2023-05-21T04:41:32.521Z,0.00
2023-05-21T04:42:32.536Z,0.00
2023-05-21T04:43:32.552Z,0.00
2023-05-21T04:44:32.482Z,0.00
2023-05-21T04:45:32.484Z,0.00
2023-05-21T04:46:32.525Z,0.00
2023-05-21T04:47:32.530Z,0.00
2023-05-21T04:48:32.627Z,0.00
2023-05-21T04:49:32.461Z,0.00
2023-05-21T04:50:32.420Z,0.00
2023-05-21T04:51:32.453Z,0.00
2023-05-21T04:52:32.398Z,0.00
2023-05-21T04:53:32.472Z,0.00
2023-05-21T04:54:32.470Z,0.00
2023-05-21T04:55:32.384Z,0.00
2023-05-21T04:56:32.434Z,0.00
2023-05-21T04:57:32.353Z,0.00
2023-05-21T04:58:32.352Z,0.00
2023-05-21T04:59:32.333Z,0.00
2023-05-21T05:00:32.398Z,0.00
2023-05-21T05:01:32.320Z,0.00
2023-05-21T05:02:32.358Z,0.00
2023-05-21T05:03:32.338Z,0.00
2023-05-21T05:04:32.268Z,0.00
2023-05-21T05:05:32.279Z,0.00
2023-05-21T05:06:32.249Z,0.00
2023-05-21T05:07:32.277Z,0.00
2023-05-21T05:08:32.254Z,0.00
2023-05-21T05:09:32.238Z,0.00
2023-05-21T05:10:32.214Z,0.00
2023-05-21T05:11:32.297Z,0.00
2023-05-21T05:12:32.230Z,0.00
2023-05-21T05:13:32.185Z,0.00
2023-05-21T05:14:32.212Z,0.00
2023-05-21T05:15:32.165Z,0.00
2023-05-21T05:16:32.260Z,0.00
2023-05-21T05:17:32.164Z,0.00
2023-05-21T05:18:32.132Z,0.00
2023-05-21T05:19:32.206Z,0.00
2023-05-21T05:20:32.136Z,0.00
2023-05-21T05:21:32.137Z,0.00
2023-05-21T05:22:32.104Z,0.00
2023-05-21T05:23:32.097Z,0.00
2023-05-21T05:24:32.086Z,0.00
2023-05-21T05:25:32.078Z,0.00
2023-05-21T05:26:32.052Z,0.00
2023-05-21T05:27:32.071Z,0.00
2023-05-21T05:28:32.060Z,0.00
2023-05-21T05:29:32.008Z,0.00
2023-05-21T05:30:32.183Z,0.00
2023-05-21T05:31:32.108Z,0.00
2023-05-21T05:32:32.025Z,0.00
2023-05-21T05:33:31.999Z,0.00
2023-05-21T05:34:32.108Z,0.00
2023-05-21T05:35:31.967Z,0.00
2023-05-21T05:36:31.957Z,0.00
2023-05-21T05:37:31.947Z,0.00
2023-05-21T05:38:31.968Z,0.00
2023-05-21T05:39:31.921Z,0.00
2023-05-21T05:40:31.923Z,0.00
2023-05-21T05:41:31.945Z,0.00
2023-05-21T05:42:31.896Z,0.00
2023-05-21T05:43:31.858Z,0.00
2023-05-21T05:44:31.988Z,0.00
2023-05-21T05:45:31.841Z,0.00
2023-05-21T05:46:36.724Z,0.00
2023-05-21T05:47:31.868Z,0.00
2023-05-21T05:48:31.816Z,0.00
2023-05-21T05:49:31.829Z,0.00
2023-05-21T05:50:31.812Z,0.00
2023-05-21T05:51:31.779Z,0.00
2023-05-21T05:52:31.772Z,0.00
2023-05-21T05:53:31.761Z,0.00
2023-05-21T05:54:31.757Z,0.00
2023-05-21T05:55:31.772Z,0.00
2023-05-21T05:56:31.744Z,0.00
2023-05-21T05:57:31.739Z,0.00
2023-05-21T05:58:31.716Z,0.00
2023-05-21T05:59:31.797Z,0.00
2023-05-21T06:00:31.704Z,0.00
2023-05-21T06:01:31.681Z,0.00
2023-05-21T06:02:31.711Z,0.00
2023-05-21T06:03:31.882Z,0.00
2023-05-21T06:04:32.588Z,0.00
2023-05-21T06:05:31.648Z,0.00
2023-05-21T06:06:31.661Z,0.00
2023-05-21T06:07:31.615Z,0.00
2023-05-21T06:08:31.631Z,0.00
2023-05-21T06:09:31.597Z,0.00
2023-05-21T06:10:31.578Z,0.00
2023-05-21T06:11:31.563Z,0.00
2023-05-21T06:12:31.592Z,0.00
2023-05-21T06:13:31.581Z,0.00
2023-05-21T06:14:31.540Z,0.00
2023-05-21T06:15:31.528Z,0.00
2023-05-21T06:16:31.822Z,0.00
2023-05-21T06:17:31.528Z,0.00
2023-05-21T06:18:31.484Z,0.00
2023-05-21T06:19:31.681Z,0.00
2023-05-21T06:20:31.465Z,0.00
2023-05-21T06:21:31.481Z,0.00
2023-05-21T06:22:31.477Z,0.00
2023-05-21T06:23:31.463Z,0.00
2023-05-21T06:24:31.451Z,0.00
2023-05-21T06:25:31.416Z,0.00
2023-05-21T06:26:31.484Z,0.00
2023-05-21T06:27:31.409Z,0.00
2023-05-21T06:28:31.377Z,0.00
2023-05-21T06:29:31.461Z,0.00
2023-05-21T06:30:31.374Z,0.00
2023-05-21T06:31:31.371Z,0.00
2023-05-21T06:32:31.450Z,0.00
2023-05-21T06:33:31.406Z,0.00
2023-05-21T06:34:31.317Z,0.00
2023-05-21T06:35:31.327Z,0.00
2023-05-21T06:36:31.296Z,0.00
2023-05-21T06:37:31.323Z,0.00
2023-05-21T06:38:31.312Z,0.00
2023-05-21T06:39:31.267Z,0.00
2023-05-21T06:40:31.272Z,0.00
2023-05-21T06:41:31.327Z,0.00
2023-05-21T06:42:31.230Z,0.00
2023-05-21T06:43:31.262Z,0.00
2023-05-21T06:44:31.208Z,0.00
2023-05-21T06:45:31.255Z,0.00
2023-05-21T06:46:46.185Z,0.00
2023-05-21T06:47:31.288Z,0.00
2023-05-21T06:48:31.198Z,0.00
2023-05-21T06:49:31.197Z,0.00
2023-05-21T06:50:31.192Z,0.00
2023-05-21T06:51:31.139Z,0.00
2023-05-21T06:52:31.239Z,0.00
2023-05-21T06:53:31.120Z,0.00
2023-05-21T06:54:31.102Z,0.00
2023-05-21T06:55:31.133Z,0.00
2023-05-21T06:56:31.082Z,0.00
2023-05-21T06:57:31.177Z,0.00
2023-05-21T06:58:31.068Z,0.00
2023-05-21T06:59:31.049Z,0.00
2023-05-21T07:00:31.050Z,0.00
2023-05-21T07:01:31.084Z,0.00
2023-05-21T07:02:31.116Z,0.00
2023-05-21T07:03:31.315Z,0.00
2023-05-21T07:04:31.018Z,0.00
2023-05-21T07:05:30.983Z,0.00
2023-05-21T07:06:30.980Z,0.00
2023-05-21T07:07:30.981Z,0.00
2023-05-21T07:08:30.960Z,0.10
2023-05-21T07:09:31.002Z,0.00
2023-05-21T07:10:30.944Z,0.00
2023-05-21T07:11:30.920Z,0.00
2023-05-21T07:12:31.087Z,0.10
2023-05-21T07:13:30.981Z,0.10
2023-05-21T07:14:30.890Z,0.10
2023-05-21T07:15:30.896Z,0.00
2023-05-21T07:16:30.911Z,0.10
2023-05-21T07:17:30.991Z,0.10
2023-05-21T07:18:30.913Z,0.10
2023-05-21T07:19:30.880Z,0.00
2023-05-21T07:20:30.865Z,0.00
2023-05-21T07:21:30.839Z,0.10
2023-05-21T07:22:30.808Z,0.00
2023-05-21T07:23:30.796Z,0.10
2023-05-21T07:24:30.817Z,0.10
2023-05-21T07:25:30.836Z,0.10
2023-05-21T07:26:30.783Z,0.10
2023-05-21T07:27:30.765Z,0.10
2023-05-21T07:28:30.752Z,0.10
2023-05-21T07:29:30.731Z,0.10
2023-05-21T07:30:30.742Z,0.10
2023-05-21T07:31:30.819Z,0.10
2023-05-21T07:32:30.724Z,0.10
2023-05-21T07:33:30.728Z,0.10
2023-05-21T07:34:30.686Z,0.10
2023-05-21T07:35:30.766Z,0.10
2023-05-21T07:36:30.706Z,0.10
2023-05-21T07:37:30.732Z,0.10
2023-05-21T07:38:30.645Z,0.10
2023-05-21T07:39:30.623Z,0.10
2023-05-21T07:40:30.622Z,0.10
2023-05-21T07:41:30.603Z,0.10
2023-05-21T07:42:30.610Z,0.20
2023-05-21T07:43:30.657Z,0.10
2023-05-21T07:44:30.596Z,0.10
2023-05-21T07:45:30.618Z,0.10
2023-05-21T07:46:30.667Z,0.20
2023-05-21T07:47:30.589Z,0.20
2023-05-21T07:48:30.537Z,0.20
2023-05-21T07:49:30.554Z,0.20
2023-05-21T07:50:30.587Z,0.20
2023-05-21T07:51:30.518Z,0.20
2023-05-21T07:52:30.556Z,0.20
2023-05-21T07:53:30.552Z,0.30
2023-05-21T07:54:30.480Z,0.20
2023-05-21T07:55:30.465Z,0.30
2023-05-21T07:56:30.455Z,0.30
2023-05-21T07:57:30.435Z,0.30
2023-05-21T07:58:30.477Z,0.30
2023-05-21T07:59:30.440Z,0.40
2023-05-21T08:00:30.433Z,0.30
2023-05-21T08:01:30.403Z,0.30
2023-05-21T08:02:30.560Z,0.40
2023-05-21T08:03:30.517Z,0.50
2023-05-21T08:04:30.453Z,0.40
2023-05-21T08:05:30.359Z,0.40
2023-05-21T08:06:30.351Z,0.50
2023-05-21T08:07:30.332Z,0.50
2023-05-21T08:08:30.353Z,0.50
2023-05-21T08:09:30.354Z,0.60
2023-05-21T08:10:30.314Z,0.70
2023-05-21T08:11:30.333Z,0.70
2023-05-21T08:12:30.281Z,0.60
2023-05-21T08:13:30.275Z,0.70
2023-05-21T08:14:30.277Z,0.60
2023-05-21T08:15:30.284Z,0.60
2023-05-21T08:16:35.261Z,0.70
2023-05-21T08:17:30.275Z,0.70
2023-05-21T08:18:30.254Z,0.70
2023-05-21T08:19:30.281Z,0.80
2023-05-21T08:20:30.305Z,0.80
2023-05-21T08:21:30.197Z,0.90
2023-05-21T08:22:30.194Z,1.00
2023-05-21T08:23:30.175Z,1.00
2023-05-21T08:24:30.295Z,0.90
2023-05-21T08:25:30.186Z,1.00
2023-05-21T08:26:30.169Z,1.20
2023-05-21T08:27:30.192Z,1.10
2023-05-21T08:28:30.143Z,1.30
2023-05-21T08:29:30.112Z,1.40
2023-05-21T08:30:30.112Z,1.30
2023-05-21T08:31:30.156Z,1.50
2023-05-21T08:32:30.136Z,1.40
2023-05-21T08:33:30.108Z,1.50
2023-05-21T08:34:30.069Z,1.40
2023-05-21T08:35:30.049Z,1.50
2023-05-21T08:36:30.050Z,1.60
2023-05-21T08:37:30.035Z,1.40
2023-05-21T08:38:30.585Z,1.30
2023-05-21T08:39:30.011Z,1.20
2023-05-21T08:40:30.032Z,1.10
2023-05-21T08:41:30.025Z,1.00
2023-05-21T08:43:30.990Z,0.90
2023-05-21T08:44:29.962Z,0.80
2023-05-21T08:45:30.023Z,0.80
2023-05-21T08:46:30.096Z,0.70
2023-05-21T08:47:29.990Z,0.60
2023-05-21T08:48:30.048Z,0.60
2023-05-21T08:49:29.918Z,0.50
2023-05-21T08:50:29.923Z,0.50
2023-05-21T08:51:29.933Z,0.50
2023-05-21T08:52:29.888Z,0.40
2023-05-21T08:53:29.885Z,0.50
2023-05-21T08:54:29.859Z,0.40
2023-05-21T08:55:29.852Z,0.40
2023-05-21T08:56:30.048Z,0.50
2023-05-21T08:57:29.826Z,0.40
2023-05-21T08:58:29.831Z,0.40
2023-05-21T08:59:29.809Z,0.40
2023-05-21T09:00:29.808Z,0.40
2023-05-21T09:01:29.829Z,0.40
2023-05-21T09:02:30.252Z,0.40
2023-05-21T09:03:29.913Z,0.40
2023-05-21T09:04:29.786Z,0.50
2023-05-21T09:05:29.827Z,0.40
2023-05-21T09:06:29.791Z,0.60
2023-05-21T09:07:29.791Z,0.50
2023-05-21T09:08:29.768Z,0.40
2023-05-21T09:09:29.694Z,0.50
2023-05-21T09:10:29.693Z,0.40
2023-05-21T09:11:29.678Z,0.60
2023-05-21T09:12:29.704Z,0.50
2023-05-21T09:13:29.719Z,0.50
2023-05-21T09:14:29.714Z,0.60
2023-05-21T09:15:29.645Z,0.60
2023-05-21T09:16:29.725Z,0.60
2023-05-21T09:17:29.687Z,0.70
2023-05-21T09:18:29.641Z,0.70
2023-05-21T09:19:29.744Z,0.80
2023-05-21T09:20:29.597Z,1.00
2023-05-21T09:21:29.597Z,0.90
2023-05-21T09:22:29.610Z,1.00
2023-05-21T09:23:29.563Z,1.10
2023-05-21T09:24:29.569Z,1.30
2023-05-21T09:25:29.558Z,1.30
2023-05-21T09:26:30.186Z,1.60
2023-05-21T09:27:37.378Z,1.60
2023-05-21T09:28:29.588Z,1.90
2023-05-21T09:29:29.566Z,2.10
2023-05-21T09:30:30.736Z,1.90
2023-05-21T09:31:29.596Z,2.30
2023-05-21T09:32:29.521Z,2.60
2023-05-21T09:33:29.686Z,2.70
2023-05-21T09:34:29.489Z,2.50
2023-05-21T09:35:29.441Z,2.80
2023-05-21T09:36:29.591Z,3.00
2023-05-21T09:37:29.426Z,2.90
2023-05-21T09:38:29.411Z,3.30
2023-05-21T09:39:29.460Z,3.20
2023-05-21T09:40:29.410Z,3.50
2023-05-21T09:41:29.443Z,3.40
2023-05-21T09:42:29.382Z,3.30
2023-05-21T09:43:29.393Z,3.20
2023-05-21T09:44:29.383Z,3.50
2023-05-21T09:45:29.345Z,3.40
2023-05-21T09:46:40.571Z,3.10
2023-05-21T09:47:29.470Z,3.30
2023-05-21T09:48:29.315Z,2.70
2023-05-21T09:49:29.316Z,2.50
2023-05-21T09:50:29.357Z,2.70
2023-05-21T09:51:29.310Z,2.70
2023-05-21T09:52:29.282Z,2.60
2023-05-21T09:53:29.309Z,2.70
2023-05-21T09:54:29.274Z,2.40
2023-05-21T09:55:29.269Z,2.30
2023-05-21T09:56:29.246Z,2.50
2023-05-21T09:57:29.236Z,2.70
2023-05-21T09:58:29.236Z,2.90
2023-05-21T09:59:29.409Z,2.80
2023-05-21T10:00:29.197Z,2.90
2023-05-21T10:01:29.204Z,3.30
2023-05-21T10:02:29.203Z,3.50
2023-05-21T10:03:29.183Z,3.40
2023-05-21T10:04:29.319Z,3.50
2023-05-21T10:05:29.199Z,3.50
2023-05-21T10:06:29.139Z,4.00
2023-05-21T10:07:29.156Z,4.00
2023-05-21T10:08:29.126Z,4.40
2023-05-21T10:09:29.121Z,4.00
2023-05-21T10:10:29.281Z,4.50
2023-05-21T10:11:29.104Z,5.00
2023-05-21T10:12:29.756Z,5.00
2023-05-21T10:13:29.090Z,5.10
2023-05-21T10:14:29.081Z,5.30
2023-05-21T10:15:29.086Z,5.80
2023-05-21T10:16:29.139Z,5.50
2023-05-21T10:17:29.115Z,5.80
2023-05-21T10:18:29.026Z,6.30
2023-05-21T10:19:29.419Z,6.70
2023-05-21T10:20:29.019Z,6.40
2023-05-21T10:21:29.005Z,6.70
2023-05-21T10:22:28.998Z,6.40
2023-05-21T10:23:29.004Z,6.70
2023-05-21T10:24:28.969Z,6.60
2023-05-21T10:25:29.010Z,6.50
2023-05-21T10:26:28.980Z,6.30
2023-05-21T10:27:31.370Z,5.90
2023-05-21T10:28:28.930Z,5.80
2023-05-21T10:29:28.962Z,4.80
2023-05-21T10:30:28.920Z,4.30
2023-05-21T10:31:28.941Z,4.00
2023-05-21T10:32:29.038Z,4.20
2023-05-21T10:33:28.950Z,3.80
2023-05-21T10:34:28.902Z,3.70
2023-05-21T10:35:29.769Z,3.60
2023-05-21T10:36:28.877Z,3.90
2023-05-21T10:37:28.929Z,3.70
2023-05-21T10:38:28.846Z,3.70
2023-05-21T10:39:28.839Z,3.70
2023-05-21T10:40:28.830Z,3.80
2023-05-21T10:41:28.840Z,3.40
2023-05-21T10:42:28.852Z,3.50
2023-05-21T10:43:29.408Z,3.60
2023-05-21T10:44:28.788Z,3.20
2023-05-21T10:45:28.839Z,3.20
2023-05-21T10:46:28.777Z,2.60
2023-05-21T10:47:28.832Z,2.60
2023-05-21T10:48:28.763Z,2.90
2023-05-21T10:49:28.742Z,3.00
2023-05-21T10:50:28.815Z,2.90
2023-05-21T10:51:28.744Z,2.90
2023-05-21T10:52:28.725Z,3.20
2023-05-21T10:53:28.769Z,2.90
2023-05-21T10:54:28.716Z,3.00
2023-05-21T10:55:28.695Z,3.10
2023-05-21T10:56:28.737Z,2.80
2023-05-21T10:57:29.311Z,3.00
2023-05-21T10:58:30.150Z,3.30
2023-05-21T10:59:28.655Z,3.50
2023-05-21T11:00:28.638Z,3.80
2023-05-21T11:01:28.693Z,4.10
2023-05-21T11:02:28.721Z,4.20
2023-05-21T11:03:28.776Z,4.30
2023-05-21T11:04:28.797Z,4.60
2023-05-21T11:05:28.589Z,5.10
2023-05-21T11:06:28.650Z,4.60
2023-05-21T11:07:28.581Z,4.40
2023-05-21T11:08:28.589Z,4.30
2023-05-21T11:09:28.562Z,4.50
2023-05-21T11:10:28.545Z,4.40
2023-05-21T11:11:28.597Z,4.60
2023-05-21T11:12:28.558Z,3.50
2023-05-21T11:13:28.547Z,3.20
2023-05-21T11:14:28.544Z,3.20
2023-05-21T11:15:28.515Z,3.20
2023-05-21T11:16:43.290Z,3.10
2023-05-21T11:17:28.509Z,2.80
2023-05-21T11:18:28.481Z,3.30
2023-05-21T11:19:28.700Z,3.20
2023-05-21T11:20:28.482Z,3.50
2023-05-21T11:21:28.489Z,3.40
2023-05-21T11:22:28.465Z,3.50
2023-05-21T11:23:28.473Z,4.10
2023-05-21T11:24:28.456Z,4.30
2023-05-21T11:25:28.436Z,4.10
2023-05-21T11:26:28.403Z,4.50
2023-05-21T11:27:28.397Z,4.70
2023-05-21T11:28:28.394Z,4.70
2023-05-21T11:29:28.466Z,5.40
2023-05-21T11:30:28.363Z,5.50
2023-05-21T11:31:28.467Z,5.80
2023-05-21T11:32:28.414Z,6.00
2023-05-21T11:33:28.352Z,6.20
2023-05-21T11:34:28.374Z,6.20
2023-05-21T11:35:28.406Z,5.70
2023-05-21T11:36:28.357Z,5.90
2023-05-21T11:37:28.307Z,6.10
2023-05-21T11:38:28.286Z,5.60
2023-05-21T11:39:28.302Z,6.20
2023-05-21T11:40:28.337Z,6.30
2023-05-21T11:41:28.282Z,6.60
2023-05-21T11:42:28.303Z,6.10
2023-05-21T11:43:28.250Z,6.00
2023-05-21T11:44:28.247Z,5.30
2023-05-21T11:45:28.264Z,5.50
2023-05-21T11:46:28.314Z,5.80
2023-05-21T11:47:28.257Z,5.10
2023-05-21T11:48:29.962Z,4.70
2023-05-21T11:49:28.337Z,5.00
2023-05-21T11:50:28.173Z,4.40
2023-05-21T11:51:28.372Z,4.80
2023-05-21T11:52:28.199Z,4.40
2023-05-21T11:53:28.274Z,4.60
2023-05-21T11:54:28.192Z,3.80
2023-05-21T11:55:28.805Z,4.20
2023-05-21T11:56:28.172Z,4.10
2023-05-21T11:57:28.111Z,4.20
2023-05-21T11:58:28.094Z,4.10
2023-05-21T11:59:28.142Z,4.20
2023-05-21T12:00:28.097Z,4.40
2023-05-21T12:01:28.108Z,4.70
2023-05-21T12:02:28.280Z,4.80
2023-05-21T12:03:28.192Z,4.40
2023-05-21T12:04:28.046Z,4.60
2023-05-21T12:05:28.046Z,4.00
2023-05-21T12:06:28.186Z,2.80
2023-05-21T12:07:28.079Z,2.60
2023-05-21T12:08:28.040Z,2.30
2023-05-21T12:09:28.020Z,1.90
2023-05-21T12:10:28.004Z,1.80
2023-05-21T12:11:27.976Z,1.70
2023-05-21T12:12:33.040Z,1.50
2023-05-21T12:13:29.034Z,1.60
2023-05-21T12:14:28.077Z,1.60
2023-05-21T12:15:28.124Z,1.60
2023-05-21T12:16:27.953Z,1.60
2023-05-21T12:17:27.941Z,1.70
2023-05-21T12:18:27.916Z,2.00
2023-05-21T12:19:28.062Z,2.00
2023-05-21T12:20:28.200Z,2.00
2023-05-21T12:21:27.877Z,2.00
2023-05-21T12:22:27.893Z,2.10
2023-05-21T12:23:28.856Z,2.10
2023-05-21T12:24:36.434Z,2.30
2023-05-21T12:25:27.898Z,2.00
2023-05-21T12:26:27.949Z,2.30
2023-05-21T12:27:27.859Z,2.10
2023-05-21T12:28:27.823Z,2.40
2023-05-21T12:29:27.814Z,2.20
2023-05-21T12:30:27.791Z,2.50
2023-05-21T12:31:27.835Z,2.90
2023-05-21T12:32:27.843Z,3.00
2023-05-21T12:33:27.873Z,2.60
2023-05-21T12:34:27.744Z,2.80
2023-05-21T12:35:27.863Z,3.30
2023-05-21T12:36:27.804Z,2.90
2023-05-21T12:37:27.794Z,2.80
2023-05-21T12:38:27.722Z,2.60
2023-05-21T12:39:27.786Z,2.40
2023-05-21T12:40:27.693Z,2.20
2023-05-21T12:41:27.683Z,2.10
2023-05-21T12:42:27.771Z,1.80
2023-05-21T12:43:27.660Z,1.60
2023-05-21T12:44:27.753Z,1.80
2023-05-21T12:45:27.678Z,1.40
2023-05-21T12:46:32.496Z,1.40
2023-05-21T12:47:27.677Z,1.20
2023-05-21T12:48:27.638Z,1.20
2023-05-21T12:49:27.660Z,1.00
2023-05-21T12:50:27.612Z,1.00
2023-05-21T12:51:27.624Z,1.10
2023-05-21T12:52:27.603Z,0.90
2023-05-21T12:53:27.635Z,1.00
2023-05-21T12:54:27.575Z,0.80
2023-05-21T12:55:27.572Z,0.70
2023-05-21T12:56:27.547Z,0.70
2023-05-21T12:57:27.548Z,0.60
2023-05-21T12:58:27.623Z,0.70
2023-05-21T12:59:27.573Z,0.60
2023-05-21T13:00:27.503Z,0.50
2023-05-21T13:01:27.552Z,0.60
2023-05-21T13:02:27.534Z,0.60
2023-05-21T13:03:27.491Z,0.50
2023-05-21T13:04:27.702Z,0.50
2023-05-21T13:05:27.450Z,0.50
2023-05-21T13:06:27.447Z,0.40
2023-05-21T13:07:27.453Z,0.40
2023-05-21T13:08:27.475Z,0.50
2023-05-21T13:09:27.467Z,0.40
2023-05-21T13:10:27.414Z,0.40
2023-05-21T13:11:27.454Z,0.40
2023-05-21T13:12:27.373Z,0.40
2023-05-21T13:13:27.390Z,0.30
2023-05-21T13:14:27.353Z,0.40
2023-05-21T13:15:27.361Z,0.30
2023-05-21T13:16:27.442Z,0.30
2023-05-21T13:17:27.476Z,0.30
2023-05-21T13:18:27.514Z,0.30
2023-05-21T13:19:27.470Z,0.30